createdAt,value
2018-10-09T00:00:45.962Z,8.20
2018-10-09T00:01:45.935Z,10.40
2018-10-09T00:02:45.930Z,9.30
2018-10-09T00:03:45.925Z,9.70
2018-10-09T00:04:45.919Z,14.20
2018-10-09T00:05:45.913Z,7.70
2018-10-09T00:06:45.907Z,7.80
2018-10-09T00:07:45.901Z,8.70
2018-10-09T00:08:45.896Z,16.40
2018-10-09T00:09:45.893Z,8.90
2018-10-09T00:10:45.885Z,9.60
2018-10-09T00:11:45.878Z,9.20
2018-10-09T00:12:45.872Z,18.00
2018-10-09T00:13:45.866Z,8.90
2018-10-09T00:14:45.861Z,9.70
2018-10-09T00:15:45.857Z,10.10
2018-10-09T00:16:45.850Z,11.80
2018-10-09T00:17:45.843Z,11.60
2018-10-09T00:18:45.838Z,10.70
2018-10-09T00:19:45.832Z,12.10
2018-10-09T00:20:45.826Z,14.60
2018-10-09T00:21:45.820Z,13.10
2018-10-09T00:22:45.815Z,10.90
2018-10-09T00:23:45.808Z,11.60
2018-10-09T00:24:45.803Z,11.60
2018-10-09T00:25:45.797Z,13.80
2018-10-09T00:26:45.791Z,16.40
2018-10-09T00:27:45.785Z,12.90
2018-10-09T00:28:45.778Z,12.10
2018-10-09T00:29:45.772Z,9.60
2018-10-09T00:30:45.768Z,11.40
2018-10-09T00:31:45.762Z,12.20
2018-10-09T00:32:45.757Z,10.20
2018-10-09T00:33:45.750Z,14.40
2018-10-09T00:34:45.744Z,18.70
2018-10-09T00:35:45.739Z,8.00
2018-10-09T00:36:45.733Z,19.10
2018-10-09T00:37:45.729Z,9.80
2018-10-09T00:38:45.723Z,16.40
2018-10-09T00:39:45.715Z,9.30
2018-10-09T00:40:45.710Z,7.20
2018-10-09T00:41:45.703Z,8.00
2018-10-09T00:42:45.697Z,15.20
2018-10-09T00:43:45.692Z,11.60
2018-10-09T00:44:45.686Z,10.50
2018-10-09T00:45:45.679Z,8.90
2018-10-09T00:46:45.674Z,7.50
2018-10-09T00:47:45.668Z,10.40
2018-10-09T00:48:45.662Z,12.60
2018-10-09T00:49:45.656Z,9.50
2018-10-09T00:50:45.653Z,13.40
2018-10-09T00:51:45.645Z,14.40
2018-10-09T00:52:45.639Z,11.80
2018-10-09T00:53:45.631Z,9.00
2018-10-09T00:54:45.627Z,8.90
2018-10-09T00:55:45.619Z,12.90
2018-10-09T00:56:45.614Z,9.90
2018-10-09T00:57:45.608Z,11.20
2018-10-09T00:58:45.603Z,16.00
2018-10-09T00:59:45.598Z,15.40
2018-10-09T01:00:45.591Z,13.20
2018-10-09T01:01:45.585Z,7.90
2018-10-09T01:02:45.578Z,18.90
2018-10-09T01:03:45.573Z,12.50
2018-10-09T01:04:45.567Z,11.10
2018-10-09T01:05:45.567Z,15.40
2018-10-09T01:06:45.556Z,8.60
2018-10-09T01:07:45.549Z,11.40
2018-10-09T01:08:45.542Z,8.50
2018-10-09T01:09:45.536Z,7.70
2018-10-09T01:10:45.532Z,14.60
2018-10-09T01:11:45.524Z,10.10
2018-10-09T01:12:45.519Z,10.20
2018-10-09T01:13:45.511Z,10.40
2018-10-09T01:14:45.505Z,11.00
2018-10-09T01:15:45.500Z,10.00
2018-10-09T01:16:45.494Z,8.60
2018-10-09T01:17:45.488Z,9.40
2018-10-09T01:18:45.481Z,6.50
2018-10-09T01:19:45.476Z,10.80
2018-10-09T01:20:45.474Z,8.30
2018-10-09T01:21:45.463Z,8.20
2018-10-09T01:22:45.457Z,11.90
2018-10-09T01:23:45.452Z,8.80
2018-10-09T01:24:45.445Z,10.60
2018-10-09T01:25:45.438Z,8.70
2018-10-09T01:26:45.434Z,10.80
2018-10-09T01:27:45.427Z,6.20
2018-10-09T01:28:45.421Z,10.60
2018-10-09T01:29:45.413Z,11.10
2018-10-09T01:30:45.408Z,6.50
2018-10-09T01:31:45.402Z,7.10
2018-10-09T01:32:45.398Z,11.50
2018-10-09T01:33:45.389Z,8.90
2018-10-09T01:34:45.383Z,10.50
2018-10-09T01:35:45.377Z,11.10
2018-10-09T01:36:45.375Z,9.30
2018-10-09T01:37:45.365Z,6.80
2018-10-09T01:38:45.359Z,8.30
2018-10-09T01:39:45.352Z,13.80
2018-10-09T01:40:45.346Z,10.10
2018-10-09T01:41:45.340Z,9.00
2018-10-09T01:42:45.334Z,6.40
2018-10-09T01:43:45.328Z,9.50
2018-10-09T01:44:45.323Z,11.50
2018-10-09T01:45:45.315Z,8.30
2018-10-09T01:46:45.310Z,9.90
2018-10-09T01:47:45.307Z,9.20
2018-10-09T01:48:45.298Z,10.80
2018-10-09T01:49:45.291Z,11.30
2018-10-09T01:50:45.285Z,8.70
2018-10-09T01:51:45.279Z,7.60
2018-10-09T01:52:45.274Z,9.90
2018-10-09T01:53:45.268Z,6.90
2018-10-09T01:54:45.261Z,7.00
2018-10-09T01:55:45.255Z,6.50
2018-10-09T01:56:45.248Z,6.10
2018-10-09T01:57:45.242Z,6.10
2018-10-09T01:58:45.237Z,5.80
2018-10-09T01:59:45.230Z,8.60
2018-10-09T02:00:45.224Z,7.30
2018-10-09T02:01:45.217Z,8.80
2018-10-09T02:02:45.212Z,11.70
2018-10-09T02:03:45.205Z,13.10
2018-10-09T02:04:45.199Z,9.30
2018-10-09T02:05:45.192Z,11.90
2018-10-09T02:06:45.187Z,9.20
2018-10-09T02:07:45.181Z,6.20
2018-10-09T02:08:45.173Z,6.60
2018-10-09T02:09:45.169Z,8.10
2018-10-09T02:10:45.161Z,9.30
2018-10-09T02:11:45.155Z,10.20
2018-10-09T02:12:45.148Z,11.40
2018-10-09T02:13:45.142Z,10.20
2018-10-09T02:14:45.137Z,10.80
2018-10-09T02:15:45.133Z,10.70
2018-10-09T02:16:45.125Z,9.80
2018-10-09T02:17:45.117Z,8.20
2018-10-09T02:18:45.112Z,11.10
2018-10-09T02:19:45.106Z,13.60
2018-10-09T02:20:45.100Z,15.50
2018-10-09T02:21:45.093Z,8.00
2018-10-09T02:22:45.086Z,10.00
2018-10-09T02:23:45.082Z,13.20
2018-10-09T02:24:45.075Z,8.30
2018-10-09T02:25:45.069Z,7.40
2018-10-09T02:26:45.063Z,10.90
2018-10-09T02:27:45.057Z,9.00
2018-10-09T02:28:45.051Z,7.60
2018-10-09T02:29:45.047Z,10.20
2018-10-09T02:30:45.037Z,11.50
2018-10-09T02:31:45.033Z,11.40
2018-10-09T02:32:45.025Z,11.50
2018-10-09T02:33:45.178Z,13.80
2018-10-09T02:34:45.013Z,18.10
2018-10-09T02:35:45.006Z,7.60
2018-10-09T02:36:44.999Z,7.60
2018-10-09T02:37:44.993Z,9.00
2018-10-09T02:38:44.987Z,10.70
2018-10-09T02:39:44.983Z,8.40
2018-10-09T02:40:44.975Z,8.70
2018-10-09T02:41:44.968Z,10.00
2018-10-09T02:42:44.961Z,11.60
2018-10-09T02:43:44.954Z,10.60
2018-10-09T02:44:44.949Z,9.50
2018-10-09T02:45:44.942Z,14.00
2018-10-09T02:46:44.984Z,12.30
2018-10-09T02:47:44.931Z,18.70
2018-10-09T02:48:44.924Z,9.30
2018-10-09T02:49:44.917Z,6.70
2018-10-09T02:50:44.910Z,8.70
2018-10-09T02:51:44.907Z,13.10
2018-10-09T02:52:44.899Z,10.00
2018-10-09T02:53:44.891Z,8.80
2018-10-09T02:54:44.886Z,10.00
2018-10-09T02:55:44.879Z,7.20
2018-10-09T02:56:44.874Z,11.40
2018-10-09T02:57:44.866Z,11.30
2018-10-09T02:58:44.865Z,16.70
2018-10-09T02:59:44.854Z,9.80
2018-10-09T03:00:44.850Z,10.00
2018-10-09T03:01:44.840Z,13.50
2018-10-09T03:02:44.835Z,11.60
2018-10-09T03:03:44.830Z,12.70
2018-10-09T03:04:44.823Z,12.10
2018-10-09T03:05:44.835Z,9.50
2018-10-09T03:06:44.811Z,11.90
2018-10-09T03:07:44.803Z,10.10
2018-10-09T03:08:44.798Z,9.50
2018-10-09T03:09:44.790Z,8.30
2018-10-09T03:10:44.784Z,8.00
2018-10-09T03:11:44.778Z,9.60
2018-10-09T03:12:44.771Z,10.20
2018-10-09T03:13:44.765Z,13.50
2018-10-09T03:14:44.758Z,9.40
2018-10-09T03:15:44.752Z,8.90
2018-10-09T03:16:44.746Z,11.00
2018-10-09T03:17:44.747Z,11.90
2018-10-09T03:18:44.733Z,9.50
2018-10-09T03:19:44.728Z,16.20
2018-10-09T03:20:44.780Z,9.30
2018-10-09T03:21:44.713Z,9.90
2018-10-09T03:22:44.707Z,8.20
2018-10-09T03:23:44.701Z,9.90
2018-10-09T03:24:44.694Z,9.10
2018-10-09T03:25:44.691Z,8.80
2018-10-09T03:26:44.680Z,9.30
2018-10-09T03:27:44.674Z,9.20
2018-10-09T03:28:44.668Z,7.90
2018-10-09T03:29:44.661Z,11.00
2018-10-09T03:30:44.654Z,6.80
2018-10-09T03:31:44.648Z,12.40
2018-10-09T03:32:44.643Z,8.30
2018-10-09T03:33:44.636Z,10.70
2018-10-09T03:34:44.629Z,11.80
2018-10-09T03:35:44.623Z,10.00
2018-10-09T03:36:44.620Z,11.40
2018-10-09T03:37:44.610Z,14.20
2018-10-09T03:38:44.602Z,11.70
2018-10-09T03:39:44.596Z,14.60
2018-10-09T03:40:44.590Z,9.10
2018-10-09T03:41:44.586Z,15.10
2018-10-09T03:42:44.577Z,13.30
2018-10-09T03:43:44.571Z,12.80
2018-10-09T03:44:44.564Z,22.20
2018-10-09T03:45:44.557Z,10.70
2018-10-09T03:46:44.551Z,11.60
2018-10-09T03:47:44.545Z,10.40
2018-10-09T03:48:44.538Z,10.00
2018-10-09T03:49:44.532Z,13.00
2018-10-09T03:50:44.525Z,12.80
2018-10-09T03:51:44.519Z,12.40
2018-10-09T03:52:44.512Z,11.40
2018-10-09T03:53:44.505Z,11.90
2018-10-09T03:54:44.500Z,10.50
2018-10-09T03:55:44.492Z,9.10
2018-10-09T03:56:44.486Z,20.40
2018-10-09T03:57:44.479Z,15.00
2018-10-09T03:58:44.473Z,14.00
2018-10-09T03:59:44.466Z,17.10
2018-10-09T04:00:44.460Z,11.60
2018-10-09T04:01:44.452Z,10.50
2018-10-09T04:02:44.446Z,9.80
2018-10-09T04:03:44.446Z,10.80
2018-10-09T04:04:44.438Z,9.30
2018-10-09T04:05:44.426Z,12.80
2018-10-09T04:06:44.420Z,15.40
2018-10-09T04:07:44.413Z,12.60
2018-10-09T04:08:44.407Z,12.80
2018-10-09T04:09:44.399Z,7.40
2018-10-09T04:10:44.393Z,10.20
2018-10-09T04:11:44.386Z,12.90
2018-10-09T04:12:44.454Z,8.60
2018-10-09T04:13:44.376Z,12.10
2018-10-09T04:14:44.367Z,15.70
2018-10-09T04:15:44.361Z,19.90
2018-10-09T04:16:44.354Z,16.90
2018-10-09T04:17:44.347Z,20.50
2018-10-09T04:18:44.342Z,11.80
2018-10-09T04:19:44.334Z,14.70
2018-10-09T04:20:44.328Z,21.40
2018-10-09T04:21:44.320Z,12.40
2018-10-09T04:22:44.313Z,23.30
2018-10-09T04:23:44.307Z,13.90
2018-10-09T04:24:44.301Z,17.90
2018-10-09T04:25:44.295Z,12.70
2018-10-09T04:26:44.287Z,10.90
2018-10-09T04:27:44.280Z,14.30
2018-10-09T04:28:44.274Z,16.60
2018-10-09T04:29:44.268Z,9.70
2018-10-09T04:30:44.260Z,14.00
2018-10-09T04:31:44.253Z,13.80
2018-10-09T04:32:44.248Z,11.00
2018-10-09T04:33:44.242Z,10.10
2018-10-09T04:34:44.234Z,13.60
2018-10-09T04:35:44.266Z,11.50
2018-10-09T04:36:44.221Z,10.60
2018-10-09T04:37:44.214Z,9.90
2018-10-09T04:38:44.207Z,12.50
2018-10-09T04:39:44.199Z,14.00
2018-10-09T04:40:44.193Z,13.90
2018-10-09T04:41:44.187Z,12.30
2018-10-09T04:42:44.179Z,14.50
2018-10-09T04:43:44.173Z,14.60
2018-10-09T04:44:44.167Z,12.90
2018-10-09T04:45:44.161Z,13.90
2018-10-09T04:46:44.157Z,15.70
2018-10-09T04:47:44.146Z,12.60
2018-10-09T04:48:44.139Z,12.60
2018-10-09T04:49:44.132Z,14.90
2018-10-09T04:50:44.128Z,8.30
2018-10-09T04:51:44.119Z,9.90
2018-10-09T04:52:44.113Z,19.60
2018-10-09T04:53:44.105Z,9.40
2018-10-09T04:54:44.099Z,12.30
2018-10-09T04:55:44.093Z,12.80
2018-10-09T04:56:44.086Z,12.30
2018-10-09T04:57:44.080Z,12.80
2018-10-09T04:58:44.071Z,9.50
2018-10-09T04:59:44.068Z,9.60
2018-10-09T05:00:44.138Z,11.60
2018-10-09T05:01:44.051Z,12.40
2018-10-09T05:02:44.046Z,8.60
2018-10-09T05:03:44.040Z,11.60
2018-10-09T05:04:44.031Z,14.80
2018-10-09T05:05:44.024Z,10.10
2018-10-09T05:06:44.017Z,10.30
2018-10-09T05:07:44.011Z,16.40
2018-10-09T05:08:44.004Z,9.60
2018-10-09T05:09:43.996Z,10.00
2018-10-09T05:10:43.990Z,15.90
2018-10-09T05:11:43.984Z,10.80
2018-10-09T05:12:43.979Z,9.40
2018-10-09T05:13:43.971Z,10.40
2018-10-09T05:14:43.963Z,7.80
2018-10-09T05:15:43.956Z,10.40
2018-10-09T05:16:43.950Z,15.90
2018-10-09T05:17:43.981Z,7.30
2018-10-09T05:18:43.935Z,8.50
2018-10-09T05:19:43.929Z,11.40
2018-10-09T05:20:43.926Z,9.30
2018-10-09T05:21:43.919Z,10.40
2018-10-09T05:22:43.911Z,17.10
2018-10-09T05:23:43.902Z,9.40
2018-10-09T05:24:43.900Z,7.80
2018-10-09T05:25:43.887Z,13.90
2018-10-09T05:26:43.883Z,14.20
2018-10-09T05:27:43.875Z,8.80
2018-10-09T05:28:43.869Z,14.20
2018-10-09T05:29:43.863Z,9.90
2018-10-09T05:30:43.855Z,6.00
2018-10-09T05:31:43.879Z,14.00
2018-10-09T05:32:43.841Z,6.90
2018-10-09T05:33:43.834Z,12.60
2018-10-09T05:34:43.827Z,7.60
2018-10-09T05:35:43.821Z,6.40
2018-10-09T05:36:43.816Z,11.90
2018-10-09T05:37:43.823Z,7.40
2018-10-09T05:38:43.800Z,7.20
2018-10-09T05:39:43.793Z,10.50
2018-10-09T05:40:43.788Z,10.90
2018-10-09T05:41:43.780Z,7.20
2018-10-09T05:42:43.776Z,13.30
2018-10-09T05:43:43.768Z,12.00
2018-10-09T05:44:43.809Z,9.10
2018-10-09T05:45:43.754Z,13.10
2018-10-09T05:46:43.748Z,10.00
2018-10-09T05:47:43.739Z,12.90
2018-10-09T05:48:43.733Z,13.40
2018-10-09T05:49:43.725Z,10.50
2018-10-09T05:50:43.719Z,8.90
2018-10-09T05:51:43.713Z,9.90
2018-10-09T05:52:43.768Z,9.20
2018-10-09T05:53:43.702Z,8.60
2018-10-09T05:54:43.692Z,14.80
2018-10-09T05:55:43.685Z,11.40
2018-10-09T05:56:43.678Z,8.30
2018-10-09T05:57:43.671Z,10.20
2018-10-09T05:58:43.663Z,12.60
2018-10-09T05:59:43.658Z,9.50
2018-10-09T06:00:43.654Z,11.90
2018-10-09T06:01:43.645Z,8.10
2018-10-09T06:02:43.638Z,9.60
2018-10-09T06:03:43.631Z,9.10
2018-10-09T06:04:43.624Z,9.20
2018-10-09T06:05:43.618Z,7.70
2018-10-09T06:06:43.611Z,7.80
2018-10-09T06:07:43.604Z,10.50
2018-10-09T06:08:43.600Z,9.90
2018-10-09T06:09:43.593Z,8.40
2018-10-09T06:10:43.584Z,14.80
2018-10-09T06:11:43.577Z,13.10
2018-10-09T06:12:43.571Z,9.70
2018-10-09T06:13:43.563Z,11.40
2018-10-09T06:14:43.557Z,13.10
2018-10-09T06:15:43.573Z,12.30
2018-10-09T06:16:43.544Z,9.70
2018-10-09T06:17:43.538Z,8.20
2018-10-09T06:18:43.530Z,8.10
2018-10-09T06:19:43.524Z,7.60
2018-10-09T06:20:43.517Z,8.60
2018-10-09T06:21:43.509Z,7.40
2018-10-09T06:22:43.505Z,11.60
2018-10-09T06:23:43.497Z,6.40
2018-10-09T06:24:43.490Z,7.30
2018-10-09T06:25:43.483Z,10.20
2018-10-09T06:26:43.476Z,16.40
2018-10-09T06:27:43.470Z,10.30
2018-10-09T06:28:43.464Z,10.40
2018-10-09T06:29:43.458Z,11.10
2018-10-09T06:30:43.453Z,7.70
2018-10-09T06:31:43.444Z,12.10
2018-10-09T06:32:43.437Z,6.20
2018-10-09T06:33:43.430Z,10.20
2018-10-09T06:34:43.425Z,14.60
2018-10-09T06:35:43.418Z,15.30
2018-10-09T06:36:43.415Z,12.70
2018-10-09T06:37:43.404Z,16.40
2018-10-09T06:38:43.398Z,11.60
2018-10-09T06:39:43.449Z,17.50
2018-10-09T06:40:43.397Z,12.20
2018-10-09T06:41:43.378Z,7.70
2018-10-09T06:42:43.444Z,9.00
2018-10-09T06:43:43.367Z,12.50
2018-10-09T06:44:43.361Z,9.20
2018-10-09T06:45:43.352Z,9.00
2018-10-09T06:46:43.345Z,7.40
2018-10-09T06:47:43.395Z,12.20
2018-10-09T06:48:43.333Z,19.00
2018-10-09T06:49:43.327Z,15.10
2018-10-09T06:50:43.320Z,9.10
2018-10-09T06:51:43.315Z,8.60
2018-10-09T06:52:43.307Z,13.30
2018-10-09T06:53:43.419Z,7.60
2018-10-09T06:54:43.454Z,12.00
2018-10-09T06:55:43.312Z,11.40
2018-10-09T06:56:43.282Z,11.20
2018-10-09T06:57:43.275Z,17.20
2018-10-09T06:58:43.269Z,15.70
2018-10-09T06:59:43.263Z,7.00
2018-10-09T07:00:43.256Z,12.20
2018-10-09T07:01:43.250Z,10.40
2018-10-09T07:02:43.243Z,14.20
2018-10-09T07:03:43.237Z,7.90
2018-10-09T07:04:43.232Z,7.40
2018-10-09T07:05:43.223Z,8.20
2018-10-09T07:06:43.219Z,11.80
2018-10-09T07:07:43.212Z,9.40
2018-10-09T07:08:43.206Z,8.90
2018-10-09T07:09:43.204Z,7.50
2018-10-09T07:10:43.194Z,8.70
2018-10-09T07:11:43.234Z,9.20
2018-10-09T07:12:43.183Z,8.30
2018-10-09T07:13:43.176Z,7.70
2018-10-09T07:14:43.170Z,11.20
2018-10-09T07:15:43.163Z,6.90
2018-10-09T07:16:43.158Z,8.20
2018-10-09T07:17:43.151Z,7.70
2018-10-09T07:18:43.145Z,8.00
2018-10-09T07:19:43.140Z,11.80
2018-10-09T07:20:43.135Z,10.50
2018-10-09T07:21:43.126Z,9.50
2018-10-09T07:22:43.121Z,8.20
2018-10-09T07:23:43.115Z,9.10
2018-10-09T07:24:43.118Z,7.70
2018-10-09T07:25:43.103Z,9.60
2018-10-09T07:26:43.098Z,10.70
2018-10-09T07:27:43.107Z,9.20
2018-10-09T07:28:43.087Z,15.90
2018-10-09T07:29:43.080Z,9.40
2018-10-09T07:30:43.075Z,8.80
2018-10-09T07:31:43.069Z,10.00
2018-10-09T07:32:43.065Z,11.80
2018-10-09T07:33:43.057Z,9.00
2018-10-09T07:34:43.053Z,14.50
2018-10-09T07:35:43.049Z,7.30
2018-10-09T07:36:43.042Z,10.30
2018-10-09T07:37:43.061Z,12.20
2018-10-09T07:38:43.031Z,10.50
2018-10-09T07:39:43.026Z,8.20
2018-10-09T07:40:43.025Z,10.50
2018-10-09T07:41:43.014Z,9.50
2018-10-09T07:42:43.009Z,10.00
2018-10-09T07:43:43.057Z,6.80
2018-10-09T07:44:43.001Z,9.70
2018-10-09T07:45:42.994Z,10.20
2018-10-09T07:46:42.990Z,11.30
2018-10-09T07:47:42.986Z,10.60
2018-10-09T07:48:42.979Z,9.10
2018-10-09T07:49:42.976Z,16.00
2018-10-09T07:50:42.969Z,10.20
2018-10-09T07:51:42.967Z,10.60
2018-10-09T07:52:42.975Z,10.80
2018-10-09T07:53:42.954Z,18.60
2018-10-09T07:54:42.955Z,14.90
2018-10-09T07:55:42.944Z,8.40
2018-10-09T07:56:42.940Z,9.90
2018-10-09T07:57:42.937Z,8.30
2018-10-09T07:58:42.989Z,15.20
2018-10-09T07:59:42.925Z,12.30
2018-10-09T08:00:42.921Z,8.90
2018-10-09T08:01:42.918Z,10.30
2018-10-09T08:02:42.912Z,14.40
2018-10-09T08:03:42.914Z,10.50
2018-10-09T08:04:42.930Z,11.70
2018-10-09T08:05:42.901Z,10.40
2018-10-09T08:06:42.893Z,11.00
2018-10-09T08:07:42.892Z,6.60
2018-10-09T08:08:42.886Z,15.80
2018-10-09T08:09:42.879Z,9.90
2018-10-09T08:10:42.910Z,12.80
2018-10-09T08:11:42.870Z,9.40
2018-10-09T08:12:42.866Z,12.30
2018-10-09T08:13:42.861Z,14.20
2018-10-09T08:14:42.857Z,12.00
2018-10-09T08:15:42.853Z,15.60
2018-10-09T08:16:42.852Z,10.80
2018-10-09T08:17:42.846Z,9.70
2018-10-09T08:18:42.845Z,12.40
2018-10-09T08:19:42.842Z,18.50
2018-10-09T08:20:42.841Z,10.10
2018-10-09T08:21:42.828Z,17.90
2018-10-09T08:22:42.954Z,14.20
2018-10-09T08:23:42.822Z,11.70
2018-10-09T08:24:42.819Z,17.10
2018-10-09T08:25:42.816Z,8.80
2018-10-09T08:26:42.811Z,13.10
2018-10-09T08:27:42.807Z,13.00
2018-10-09T08:28:42.805Z,10.20
2018-10-09T08:29:42.800Z,11.90
2018-10-09T08:30:42.797Z,9.60
2018-10-09T08:31:42.792Z,14.50
2018-10-09T08:32:42.793Z,16.30
2018-10-09T08:33:42.794Z,10.80
2018-10-09T08:34:42.783Z,12.70
2018-10-09T08:35:42.780Z,9.70
2018-10-09T08:36:42.783Z,13.50
2018-10-09T08:37:42.774Z,14.90
2018-10-09T08:38:42.784Z,8.70
2018-10-09T08:39:42.767Z,9.80
2018-10-09T08:40:42.764Z,12.80
2018-10-09T08:41:42.762Z,9.50
2018-10-09T08:42:42.757Z,11.90
2018-10-09T08:43:42.753Z,9.00
2018-10-09T08:44:42.750Z,13.30
2018-10-09T08:45:42.746Z,17.60
2018-10-09T08:46:42.743Z,14.10
2018-10-09T08:47:42.740Z,14.80
2018-10-09T08:48:42.736Z,14.30
2018-10-09T08:49:42.735Z,14.50
2018-10-09T08:50:42.731Z,14.20
2018-10-09T08:51:42.728Z,11.70
2018-10-09T08:52:42.725Z,13.90
2018-10-09T08:53:42.721Z,17.20
2018-10-09T08:54:42.719Z,15.00
2018-10-09T08:55:42.719Z,18.80
2018-10-09T08:56:42.713Z,11.80
2018-10-09T08:57:42.708Z,19.00
2018-10-09T08:58:42.705Z,10.00
2018-10-09T08:59:42.704Z,14.00
2018-10-09T09:00:42.701Z,14.70
2018-10-09T09:01:42.697Z,11.90
2018-10-09T09:02:42.692Z,14.20
2018-10-09T09:03:42.751Z,15.90
2018-10-09T09:04:42.689Z,12.00
2018-10-09T09:05:42.683Z,17.30
2018-10-09T09:06:42.683Z,11.00
2018-10-09T09:07:42.678Z,12.50
2018-10-09T09:08:42.674Z,12.80
2018-10-09T09:09:42.722Z,17.00
2018-10-09T09:10:42.667Z,19.80
2018-10-09T09:11:42.665Z,15.40
2018-10-09T09:12:42.663Z,13.00
2018-10-09T09:13:42.661Z,12.80
2018-10-09T09:14:42.656Z,16.70
2018-10-09T09:15:42.654Z,10.00
2018-10-09T09:16:42.650Z,10.90
2018-10-09T09:17:42.649Z,14.90
2018-10-09T09:18:42.652Z,13.90
2018-10-09T09:19:42.645Z,12.30
2018-10-09T09:20:42.797Z,10.00
2018-10-09T09:21:42.643Z,13.90
2018-10-09T09:22:42.643Z,13.00
2018-10-09T09:23:42.644Z,11.70
2018-10-09T09:24:42.647Z,12.40
2018-10-09T09:25:42.646Z,9.20
2018-10-09T09:26:42.778Z,9.30
2018-10-09T09:27:42.723Z,8.30
2018-10-09T09:28:42.653Z,8.90
2018-10-09T09:29:42.656Z,10.00
2018-10-09T09:30:42.659Z,8.80
2018-10-09T09:31:42.662Z,13.00
2018-10-09T09:32:42.669Z,11.30
2018-10-09T09:33:42.669Z,11.90
2018-10-09T09:34:42.676Z,16.60
2018-10-09T09:35:42.681Z,16.40
2018-10-09T09:36:42.686Z,6.20
2018-10-09T09:37:42.690Z,9.40
2018-10-09T09:38:42.700Z,9.00
2018-10-09T09:39:42.704Z,7.70
2018-10-09T09:40:42.710Z,12.50
2018-10-09T09:41:42.716Z,8.70
2018-10-09T09:42:42.722Z,6.50
2018-10-09T09:43:42.730Z,9.10
2018-10-09T09:44:42.736Z,13.50
2018-10-09T09:45:42.791Z,8.80
2018-10-09T09:46:42.751Z,6.90
2018-10-09T09:47:42.759Z,8.10
2018-10-09T09:48:42.767Z,8.10
2018-10-09T09:49:42.772Z,9.90
2018-10-09T09:50:42.780Z,8.20
2018-10-09T09:51:42.786Z,6.60
2018-10-09T09:52:42.799Z,10.10
2018-10-09T09:53:42.803Z,6.30
2018-10-09T09:54:42.812Z,12.30
2018-10-09T09:55:42.821Z,8.50
2018-10-09T09:56:42.834Z,8.40
2018-10-09T09:57:42.890Z,9.00
2018-10-09T09:58:42.941Z,7.60
2018-10-09T09:59:42.853Z,7.50
2018-10-09T10:00:42.863Z,10.90
2018-10-09T10:01:42.869Z,8.80
2018-10-09T10:02:42.880Z,10.30
2018-10-09T10:03:42.917Z,7.00
2018-10-09T10:04:42.897Z,11.40
2018-10-09T10:05:42.905Z,13.10
2018-10-09T10:06:42.959Z,14.20
2018-10-09T10:07:42.922Z,11.10
2018-10-09T10:08:42.932Z,13.10
2018-10-09T10:09:42.942Z,13.30
2018-10-09T10:10:42.948Z,16.30
2018-10-09T10:11:42.967Z,10.10
2018-10-09T10:12:42.968Z,10.70
2018-10-09T10:13:42.976Z,12.80
2018-10-09T10:14:42.987Z,11.50
2018-10-09T10:15:43.047Z,11.00
2018-10-09T10:16:43.006Z,10.40
2018-10-09T10:17:43.015Z,12.40
2018-10-09T10:18:43.024Z,12.00
2018-10-09T10:19:43.036Z,8.90
2018-10-09T10:20:43.042Z,9.70
2018-10-09T10:21:43.053Z,12.30
2018-10-09T10:22:43.063Z,10.10
2018-10-09T10:23:43.071Z,14.60
2018-10-09T10:24:43.078Z,11.40
2018-10-09T10:25:43.086Z,12.40
2018-10-09T10:26:43.096Z,20.10
2018-10-09T10:27:43.104Z,16.20
2018-10-09T10:28:43.113Z,19.10
2018-10-09T10:29:43.119Z,14.70
2018-10-09T10:30:43.127Z,18.60
2018-10-09T10:31:43.136Z,18.80
2018-10-09T10:32:43.142Z,15.20
2018-10-09T10:33:43.149Z,13.30
2018-10-09T10:34:43.156Z,12.10
2018-10-09T10:35:43.233Z,16.50
2018-10-09T10:36:43.200Z,15.20
2018-10-09T10:37:43.174Z,14.60
2018-10-09T10:38:43.182Z,15.30
2018-10-09T10:39:43.191Z,18.60
2018-10-09T10:40:43.192Z,18.10
2018-10-09T10:41:43.197Z,21.40
2018-10-09T10:42:43.206Z,20.60
2018-10-09T10:43:43.212Z,16.20
2018-10-09T10:44:43.212Z,16.00
2018-10-09T10:45:43.217Z,24.20
2018-10-09T10:46:43.227Z,13.20
2018-10-09T10:47:43.226Z,14.60
2018-10-09T10:48:43.231Z,15.60
2018-10-09T10:49:43.235Z,14.90
2018-10-09T10:50:43.239Z,20.70
2018-10-09T10:51:43.246Z,15.70
2018-10-09T10:52:43.248Z,12.50
2018-10-09T10:53:43.250Z,14.10
2018-10-09T10:54:43.259Z,17.30
2018-10-09T10:55:43.259Z,20.10
2018-10-09T10:56:43.261Z,18.00
2018-10-09T10:57:43.264Z,14.80
2018-10-09T10:58:43.268Z,20.40
2018-10-09T10:59:43.275Z,15.70
2018-10-09T11:00:43.276Z,18.10
2018-10-09T11:01:43.286Z,18.90
2018-10-09T11:02:43.288Z,24.20
2018-10-09T11:03:43.287Z,17.20
2018-10-09T11:04:43.292Z,22.30
2018-10-09T11:05:43.293Z,19.80
2018-10-09T11:06:43.297Z,24.90
2018-10-09T11:07:43.303Z,15.70
2018-10-09T11:08:43.305Z,17.80
2018-10-09T11:09:43.308Z,19.70
2018-10-09T11:10:43.310Z,16.80
2018-10-09T11:11:43.315Z,20.70
2018-10-09T11:12:43.317Z,19.20
2018-10-09T11:13:43.319Z,19.00
2018-10-09T11:14:43.408Z,16.60
2018-10-09T11:15:43.329Z,19.40
2018-10-09T11:16:43.330Z,15.70
2018-10-09T11:17:43.331Z,15.20
2018-10-09T11:18:43.334Z,18.40
2018-10-09T11:19:43.337Z,16.50
2018-10-09T11:20:43.341Z,19.50
2018-10-09T11:21:43.400Z,17.50
2018-10-09T11:22:43.346Z,18.30
2018-10-09T11:23:43.350Z,19.10
2018-10-09T11:24:43.378Z,15.20
2018-10-09T11:25:43.353Z,20.30
2018-10-09T11:26:43.355Z,26.00
2018-10-09T11:27:43.359Z,22.50
2018-10-09T11:28:43.361Z,18.30
2018-10-09T11:29:43.362Z,20.30
2018-10-09T11:30:43.372Z,18.10
2018-10-09T11:31:43.370Z,17.90
2018-10-09T11:32:43.371Z,16.70
2018-10-09T11:33:43.372Z,22.40
2018-10-09T11:34:43.375Z,20.80
2018-10-09T11:35:43.375Z,20.30
2018-10-09T11:36:43.380Z,17.30
2018-10-09T11:37:43.380Z,22.00
2018-10-09T11:38:43.383Z,16.20
2018-10-09T11:39:43.384Z,19.10
2018-10-09T11:40:43.388Z,19.00
2018-10-09T11:41:43.389Z,17.30
2018-10-09T11:42:43.431Z,20.90
2018-10-09T11:43:43.393Z,23.90
2018-10-09T11:44:43.397Z,22.90
2018-10-09T11:45:43.396Z,21.80
2018-10-09T11:46:43.402Z,24.60
2018-10-09T11:47:43.401Z,20.70
2018-10-09T11:48:43.403Z,22.80
2018-10-09T11:49:43.405Z,16.80
2018-10-09T11:50:43.409Z,26.90
2018-10-09T11:51:43.411Z,15.70
2018-10-09T11:52:43.412Z,20.60
2018-10-09T11:53:43.414Z,20.10
2018-10-09T11:54:43.416Z,26.60
2018-10-09T11:55:43.418Z,25.60
2018-10-09T11:56:43.420Z,19.40
2018-10-09T11:57:43.421Z,21.70
2018-10-09T11:58:43.460Z,25.80
2018-10-09T11:59:43.426Z,23.40
2018-10-09T12:00:43.431Z,17.90
2018-10-09T12:01:43.429Z,20.20
2018-10-09T12:02:43.454Z,22.30
2018-10-09T12:03:43.434Z,22.40
2018-10-09T12:04:43.434Z,23.90
2018-10-09T12:05:43.478Z,20.20
2018-10-09T12:06:43.444Z,23.10
2018-10-09T12:07:43.441Z,23.30
2018-10-09T12:08:43.445Z,24.90
2018-10-09T12:09:43.443Z,21.20
2018-10-09T12:10:43.444Z,20.00
2018-10-09T12:11:43.446Z,20.60
2018-10-09T12:12:43.450Z,26.30
2018-10-09T12:13:43.450Z,29.00
2018-10-09T12:14:43.451Z,22.00
2018-10-09T12:15:43.462Z,23.10
2018-10-09T12:16:43.455Z,20.60
2018-10-09T12:17:43.456Z,28.80
2018-10-09T12:18:43.463Z,23.80
2018-10-09T12:19:43.461Z,23.40
2018-10-09T12:20:43.463Z,20.60
2018-10-09T12:21:43.464Z,23.80
2018-10-09T12:22:43.464Z,17.70
2018-10-09T12:23:43.466Z,18.00
2018-10-09T12:24:43.472Z,23.50
2018-10-09T12:25:43.471Z,22.40
2018-10-09T12:26:43.471Z,22.50
2018-10-09T12:27:43.473Z,19.80
2018-10-09T12:28:43.475Z,19.50
2018-10-09T12:29:43.475Z,22.30
2018-10-09T12:30:43.478Z,18.20
2018-10-09T12:31:43.480Z,25.20
2018-10-09T12:32:43.520Z,27.70
2018-10-09T12:33:43.482Z,22.30
2018-10-09T12:34:43.486Z,21.10
2018-10-09T12:35:43.489Z,20.50
2018-10-09T12:36:43.488Z,25.90
2018-10-09T12:37:43.488Z,21.90
2018-10-09T12:38:43.491Z,21.70
2018-10-09T12:39:43.492Z,23.30
2018-10-09T12:40:43.498Z,22.30
2018-10-09T12:41:43.494Z,24.00
2018-10-09T12:42:43.499Z,23.80
2018-10-09T12:43:43.549Z,26.70
2018-10-09T12:44:43.501Z,24.30
2018-10-09T12:45:43.502Z,18.50
2018-10-09T12:46:43.504Z,21.30
2018-10-09T12:47:43.505Z,24.90
2018-10-09T12:48:43.508Z,25.70
2018-10-09T12:49:43.508Z,22.20
2018-10-09T12:50:43.511Z,26.50
2018-10-09T12:51:43.514Z,28.70
2018-10-09T12:52:43.558Z,26.30
2018-10-09T12:53:43.514Z,26.90
2018-10-09T12:54:43.516Z,23.00
2018-10-09T12:55:43.519Z,19.60
2018-10-09T12:56:43.520Z,21.80
2018-10-09T12:57:43.521Z,25.60
2018-10-09T12:58:43.555Z,21.50
2018-10-09T12:59:43.525Z,20.50
2018-10-09T13:00:43.526Z,21.00